Time;durP1;ratioP1;P1;durP2;ratioP2;P2;SDS_P1;SDS_P2;PMS_P1;PMS_P2;Temp;Humidity;BMP_temperature;BMP_pressure;BME280_temperature;BME280_humidity;BME280_pressure;Samples;Min_cycle;Max_cycle;Signal;HPM_P1;HPM_P2
2023/02/19 00:01:20;;;;;;;23.63;14.95;;;11.90;99.90;;;;;;6152114;23;20017;-75
2023/02/19 00:03:51;;;;;;;24.25;14.90;;;12.00;99.90;;;;;;6148341;23;20521;-75
2023/02/19 00:06:17;;;;;;;22.23;15.05;;;12.00;99.90;;;;;;6150860;23;20085;-76
2023/02/19 00:08:43;;;;;;;24.20;16.35;;;12.00;99.90;;;;;;6125205;23;20113;-75
2023/02/19 00:11:15;;;;;;;24.65;15.73;;;12.00;99.90;;;;;;6150815;23;20012;-75
2023/02/19 00:13:43;;;;;;;23.37;16.50;;;12.00;99.90;;;;;;6147337;23;20002;-74
2023/02/19 00:16:17;;;;;;;27.35;15.82;;;12.00;99.90;;;;;;6152253;23;20025;-76
2023/02/19 00:18:43;;;;;;;30.15;17.20;;;12.00;99.90;;;;;;6153496;23;20008;-75
2023/02/19 00:21:09;;;;;;;26.80;16.65;;;12.00;99.90;;;;;;6153281;23;20009;-75
2023/02/19 00:23:35;;;;;;;31.23;15.60;;;12.00;99.90;;;;;;6152911;23;20008;-75
2023/02/19 00:26:03;;;;;;;24.92;17.48;;;12.00;99.90;;;;;;6152960;23;20006;-75
2023/02/19 00:28:28;;;;;;;27.15;17.95;;;12.00;99.90;;;;;;6152817;23;20322;-75
2023/02/19 00:30:54;;;;;;;29.80;17.83;;;11.90;99.90;;;;;;6151487;23;20001;-76
2023/02/19 00:33:19;;;;;;;35.35;17.98;;;12.00;99.90;;;;;;6153301;23;20407;-75
2023/02/19 00:35:45;;;;;;;27.75;16.50;;;11.90;99.90;;;;;;6153816;23;20009;-75
2023/02/19 00:38:11;;;;;;;31.42;19.27;;;11.90;99.90;;;;;;6152904;23;20005;-75
2023/02/19 00:40:38;;;;;;;27.13;18.00;;;11.90;99.90;;;;;;6151270;23;20440;-75
2023/02/19 00:43:03;;;;;;;30.45;17.63;;;12.00;99.90;;;;;;6152240;23;20362;-75
2023/02/19 00:45:29;;;;;;;32.80;17.85;;;12.00;99.90;;;;;;6152176;23;20005;-75
2023/02/19 00:47:55;;;;;;;30.05;19.13;;;11.90;99.90;;;;;;6152703;23;20422;-75
2023/02/19 00:50:20;;;;;;;31.90;17.55;;;12.00;99.90;;;;;;6153250;23;20072;-77
2023/02/19 00:52:46;;;;;;;30.55;18.63;;;12.00;99.90;;;;;;6151363;23;19997;-75
2023/02/19 00:55:12;;;;;;;27.95;17.75;;;12.00;99.90;;;;;;6151770;23;20020;-76
2023/02/19 00:57:37;;;;;;;32.15;18.38;;;12.00;99.90;;;;;;6151952;23;20044;-76
2023/02/19 01:00:05;;;;;;;29.58;18.50;;;12.00;99.90;;;;;;6153127;23;20009;-75
2023/02/19 01:02:31;;;;;;;33.78;18.80;;;12.10;99.90;;;;;;6152394;23;20006;-75
2023/02/19 01:04:57;;;;;;;27.95;17.98;;;12.00;99.90;;;;;;6152610;23;20008;-76
2023/02/19 01:07:23;;;;;;;32.85;18.33;;;12.00;99.90;;;;;;6152165;23;20014;-75
2023/02/19 01:09:48;;;;;;;31.60;18.98;;;12.10;99.90;;;;;;6153277;23;20010;-74
2023/02/19 01:12:14;;;;;;;36.22;20.95;;;12.00;99.90;;;;;;6152357;23;20045;-76
2023/02/19 01:14:39;;;;;;;31.50;17.85;;;12.00;99.90;;;;;;6152573;23;20040;-75
2023/02/19 01:17:05;;;;;;;32.45;19.33;;;12.00;99.90;;;;;;6150830;23;20055;-76
2023/02/19 01:19:30;;;;;;;30.38;18.35;;;12.00;99.90;;;;;;6126766;23;20415;-76
2023/02/19 01:21:56;;;;;;;34.25;18.00;;;12.00;99.90;;;;;;6153569;23;19997;-76
2023/02/19 01:24:22;;;;;;;29.00;18.38;;;12.00;99.90;;;;;;6153700;23;20013;-76
2023/02/19 01:26:47;;;;;;;26.85;17.55;;;12.00;99.90;;;;;;6154668;23;20080;-74
2023/02/19 01:29:13;;;;;;;37.15;19.52;;;12.00;99.90;;;;;;6154623;23;20013;-76
2023/02/19 01:31:40;;;;;;;31.75;17.88;;;12.00;99.90;;;;;;6129404;23;20325;-76
2023/02/19 01:34:08;;;;;;;31.75;18.95;;;12.00;99.90;;;;;;6155578;23;20040;-75
2023/02/19 01:36:35;;;;;;;33.13;19.52;;;12.00;99.90;;;;;;6153033;23;20002;-76
2023/02/19 01:39:03;;;;;;;28.25;18.05;;;12.00;99.90;;;;;;6154865;23;20408;-75
2023/02/19 01:41:29;;;;;;;31.27;18.10;;;12.00;99.90;;;;;;6153784;23;20486;-76
2023/02/19 01:44:04;;;;;;;34.30;19.63;;;12.00;99.90;;;;;;6129345;23;20394;-76
2023/02/19 01:46:34;;;;;;;34.45;19.65;;;11.90;99.90;;;;;;6155606;23;20390;-76
2023/02/19 01:49:12;;;;;;;37.08;20.27;;;12.00;99.90;;;;;;6151009;23;20182;-76
2023/02/19 01:51:43;;;;;;;35.42;20.90;;;12.00;99.90;;;;;;6154434;23;20004;-75
2023/02/19 01:54:11;;;;;;;37.00;21.20;;;12.00;99.90;;;;;;6155204;23;20009;-75
2023/02/19 01:56:41;;;;;;;34.03;20.38;;;12.00;99.90;;;;;;6153124;23;20001;-75
2023/02/19 01:59:07;;;;;;;38.28;23.23;;;12.00;99.90;;;;;;6128191;23;20128;-75
2023/02/19 02:01:33;;;;;;;36.75;22.15;;;11.90;99.90;;;;;;6153158;23;20080;-75
2023/02/19 02:03:59;;;;;;;37.40;21.27;;;12.00;99.90;;;;;;6153999;23;20068;-75
2023/02/19 02:06:41;;;;;;;38.83;20.35;;;12.00;99.90;;;;;;6127959;23;20362;-75
2023/02/19 02:11:52;;;;;;;36.50;21.60;;;12.00;99.90;;;;;;6154111;23;20032;-74
2023/02/19 02:14:22;;;;;;;37.92;21.52;;;12.10;99.90;;;;;;6155088;23;20438;-75
2023/02/19 02:17:07;;;;;;;38.17;22.27;;;12.10;99.90;;;;;;6154352;23;20013;-75
2023/02/19 02:20:01;;;;;;;32.72;20.50;;;12.00;99.90;;;;;;6154194;23;20017;-75
2023/02/19 02:22:26;;;;;;;36.78;23.48;;;12.00;99.90;;;;;;6128723;23;20001;-75
2023/02/19 02:25:15;;;;;;;35.78;21.75;;;11.90;99.90;;;;;;6128721;23;20017;-75
2023/02/19 02:28:04;;;;;;;34.28;22.20;;;12.00;99.90;;;;;;6153903;23;20009;-75
2023/02/19 02:30:43;;;;;;;41.80;24.15;;;12.00;99.90;;;;;;6127176;23;20018;-76
2023/02/19 02:33:24;;;;;;;40.53;24.52;;;12.00;99.90;;;;;;6154918;23;20052;-75
2023/02/19 02:36:36;;;;;;;36.83;22.15;;;12.00;99.90;;;;;;6154543;23;20012;-74
2023/02/19 02:39:06;;;;;;;43.78;22.88;;;12.10;99.90;;;;;;6148837;23;20084;-75
2023/02/19 02:41:32;;;;;;;38.90;22.55;;;12.00;99.90;;;;;;6153277;23;20009;-75
2023/02/19 02:43:57;;;;;;;37.90;23.27;;;12.00;99.90;;;;;;6154331;23;19998;-75
2023/02/19 02:46:33;;;;;;;38.38;24.13;;;12.00;99.90;;;;;;6154692;23;20017;-75
2023/02/19 02:49:05;;;;;;;44.33;22.00;;;12.10;99.90;;;;;;6153765;23;20013;-75
2023/02/19 02:51:37;;;;;;;37.72;21.20;;;12.00;99.90;;;;;;6127162;23;20009;-75
2023/02/19 02:56:55;;;;;;;36.30;21.60;;;12.00;99.90;;;;;;6155242;23;20016;-76
2023/02/19 02:59:32;;;;;;;39.20;21.92;;;12.00;99.90;;;;;;6154316;23;20002;-75
2023/02/19 03:02:19;;;;;;;34.28;19.60;;;12.00;99.90;;;;;;6152385;23;20323;-75
2023/02/19 03:07:52;;;;;;;40.00;22.35;;;12.10;99.90;;;;;;6153116;23;20015;-75
2023/02/19 03:10:24;;;;;;;39.05;21.13;;;12.00;99.90;;;;;;6152671;23;20053;-75
2023/02/19 03:21:20;;;;;;;42.88;21.88;;;12.00;99.90;;;;;;6152834;23;20041;-75
2023/02/19 03:26:33;;;;;;;43.83;24.88;;;12.00;99.90;;;;;;6154023;23;20392;-74
2023/02/19 03:31:45;;;;;;;36.08;21.75;;;11.90;99.90;;;;;;6154530;23;20476;-74
2023/02/19 03:34:16;;;;;;;42.30;22.67;;;11.90;99.90;;;;;;6152536;23;20016;-75
2023/02/19 03:36:53;;;;;;;39.95;23.52;;;11.90;99.90;;;;;;6154797;23;20048;-75
2023/02/19 03:39:22;;;;;;;39.58;21.30;;;11.80;99.90;;;;;;6153652;23;20441;-74
2023/02/19 03:41:53;;;;;;;45.33;21.90;;;11.90;99.90;;;;;;6154540;23;20326;-74
2023/02/19 03:44:26;;;;;;;41.95;22.23;;;11.80;99.90;;;;;;6152062;23;20418;-74
2023/02/19 03:47:28;;;;;;;37.53;20.55;;;11.80;99.90;;;;;;6153409;23;20005;-75
2023/02/19 03:50:20;;;;;;;38.50;21.75;;;11.90;99.90;;;;;;6153031;23;20009;-75
2023/02/19 03:53:08;;;;;;;36.13;17.83;;;12.00;99.90;;;;;;6152475;23;20008;-75
2023/02/19 03:55:34;;;;;;;34.53;18.92;;;12.00;99.90;;;;;;6154261;23;20001;-75
2023/02/19 03:58:13;;;;;;;36.75;18.17;;;11.90;99.90;;;;;;6154327;23;19997;-75
2023/02/19 04:00:48;;;;;;;33.42;15.82;;;11.90;99.90;;;;;;6154134;23;20012;-75
2023/02/19 04:03:24;;;;;;;33.05;15.35;;;11.90;99.90;;;;;;6152348;23;20328;-75
2023/02/19 04:06:00;;;;;;;32.08;14.52;;;12.00;99.90;;;;;;6127420;23;20308;-75
2023/02/19 04:08:27;;;;;;;25.77;12.75;;;11.90;99.90;;;;;;6152363;23;20105;-74
2023/02/19 04:10:54;;;;;;;30.73;15.15;;;11.90;99.90;;;;;;6154134;23;20071;-76
2023/02/19 04:13:28;;;;;;;31.70;12.00;;;11.80;99.90;;;;;;6127166;23;20036;-75
2023/02/19 04:15:59;;;;;;;25.77;10.90;;;11.80;99.90;;;;;;6153899;23;20435;-76
2023/02/19 04:18:30;;;;;;;25.25;10.77;;;11.70;99.90;;;;;;6154622;23;20002;-75
2023/02/19 04:20:57;;;;;;;20.95;8.45;;;11.80;99.90;;;;;;6151415;23;20006;-75
2023/02/19 04:23:26;;;;;;;23.13;8.68;;;11.80;99.90;;;;;;6154195;23;20002;-75
2023/02/19 04:25:56;;;;;;;20.67;9.18;;;11.70;99.90;;;;;;6153939;23;20005;-75
2023/02/19 04:28:22;;;;;;;19.20;7.93;;;11.80;99.90;;;;;;6127614;23;20010;-75
2023/02/19 04:30:48;;;;;;;26.60;7.97;;;11.80;99.90;;;;;;6153726;23;20005;-75
2023/02/19 04:33:14;;;;;;;20.27;7.80;;;11.70;99.90;;;;;;6153685;23;19998;-75
2023/02/19 04:35:39;;;;;;;21.65;7.82;;;11.70;99.90;;;;;;6152935;23;20006;-75
2023/02/19 04:38:05;;;;;;;23.60;7.22;;;11.70;99.90;;;;;;6153457;23;20013;-76
2023/02/19 04:40:31;;;;;;;21.13;8.07;;;11.70;99.90;;;;;;6152635;23;20032;-75
2023/02/19 04:42:56;;;;;;;18.33;7.50;;;11.70;99.90;;;;;;6128155;23;20440;-76
2023/02/19 04:45:22;;;;;;;24.70;8.00;;;11.60;99.90;;;;;;6152636;23;20052;-76
2023/02/19 04:47:47;;;;;;;20.85;7.43;;;11.70;99.90;;;;;;6153771;23;20009;-76
2023/02/19 04:50:13;;;;;;;17.23;7.60;;;11.60;99.90;;;;;;6153460;23;20016;-75
2023/02/19 04:52:39;;;;;;;16.73;5.97;;;11.70;99.90;;;;;;6154281;23;20439;-75
2023/02/19 04:55:05;;;;;;;19.80;7.30;;;11.70;99.90;;;;;;6153933;23;20418;-75
2023/02/19 04:57:31;;;;;;;19.63;6.18;;;11.70;99.90;;;;;;6153741;23;20076;-75
2023/02/19 04:59:56;;;;;;;19.48;6.05;;;11.70;99.90;;;;;;6152233;23;20029;-74
2023/02/19 05:02:22;;;;;;;25.98;6.55;;;11.60;99.90;;;;;;6155300;23;20335;-76
2023/02/19 05:04:48;;;;;;;16.95;6.28;;;11.70;99.90;;;;;;6154304;23;20327;-76
2023/02/19 05:07:13;;;;;;;17.30;6.72;;;11.70;99.90;;;;;;6154615;23;20002;-75
2023/02/19 05:09:39;;;;;;;18.63;6.72;;;11.70;99.90;;;;;;6155773;23;20434;-76
2023/02/19 05:12:05;;;;;;;17.35;6.40;;;11.70;99.90;;;;;;6152911;23;20478;-75
2023/02/19 05:14:30;;;;;;;21.27;6.78;;;11.80;99.90;;;;;;6155341;23;20334;-75
2023/02/19 05:16:56;;;;;;;23.60;6.47;;;11.70;99.90;;;;;;6153371;23;20001;-75
2023/02/19 05:19:21;;;;;;;16.95;6.57;;;11.60;99.90;;;;;;6155668;23;20009;-74
2023/02/19 05:21:47;;;;;;;23.02;6.70;;;11.70;99.90;;;;;;6152706;23;20055;-74
2023/02/19 05:24:13;;;;;;;15.02;5.75;;;11.70;99.90;;;;;;6155813;23;20068;-74
2023/02/19 05:26:38;;;;;;;17.92;6.43;;;11.70;99.90;;;;;;6154670;23;20004;-74
2023/02/19 05:29:04;;;;;;;21.10;6.32;;;11.70;99.90;;;;;;6153685;23;20019;-74
2023/02/19 05:31:32;;;;;;;24.45;6.25;;;11.60;99.90;;;;;;6155027;23;20008;-75
2023/02/19 05:33:58;;;;;;;22.70;6.70;;;11.50;99.90;;;;;;6153510;23;20033;-74
2023/02/19 05:36:24;;;;;;;22.95;6.88;;;11.60;99.90;;;;;;6155227;23;20410;-75
2023/02/19 05:38:54;;;;;;;25.38;6.45;;;11.60;99.90;;;;;;6155828;23;20001;-74
2023/02/19 05:41:23;;;;;;;20.83;5.93;;;11.60;99.90;;;;;;6155370;23;20002;-75
2023/02/19 05:43:49;;;;;;;28.17;7.03;;;11.60;99.90;;;;;;6156213;23;20025;-74
2023/02/19 05:46:18;;;;;;;23.73;6.47;;;11.60;99.90;;;;;;6153347;23;20334;-75
2023/02/19 05:48:45;;;;;;;23.95;6.13;;;11.60;99.90;;;;;;6154892;23;20020;-75
2023/02/19 05:51:14;;;;;;;27.50;5.03;;;11.60;99.90;;;;;;6153569;23;20001;-75
2023/02/19 05:53:41;;;;;;;23.02;5.90;;;11.50;99.90;;;;;;6154177;23;20005;-75
2023/02/19 05:56:39;;;;;;;23.35;6.15;;;11.50;99.90;;;;;;6154767;23;20307;-75
2023/02/19 05:59:07;;;;;;;22.60;6.20;;;11.40;99.90;;;;;;6154391;23;20010;-74
2023/02/19 06:01:33;;;;;;;28.80;7.03;;;11.40;99.90;;;;;;6128066;23;20060;-74
2023/02/19 06:03:59;;;;;;;21.38;6.00;;;11.40;99.90;;;;;;6128842;23;20005;-74
2023/02/19 06:06:26;;;;;;;26.27;6.40;;;11.40;99.90;;;;;;6153273;23;20093;-75
2023/02/19 06:08:52;;;;;;;20.77;5.85;;;11.40;99.90;;;;;;6128518;23;20157;-75
2023/02/19 06:11:18;;;;;;;18.23;4.57;;;11.40;99.90;;;;;;6126613;23;20005;-74
2023/02/19 06:13:44;;;;;;;23.27;5.43;;;11.30;99.90;;;;;;6154525;23;20367;-74
2023/02/19 06:16:10;;;;;;;18.42;5.45;;;11.40;99.90;;;;;;6154733;23;20014;-74
2023/02/19 06:18:36;;;;;;;25.77;5.63;;;11.40;99.90;;;;;;6153980;23;20487;-74
2023/02/19 06:21:06;;;;;;;22.35;4.97;;;11.40;99.90;;;;;;6152963;23;20005;-74
2023/02/19 06:23:32;;;;;;;19.00;6.45;;;11.50;99.90;;;;;;6128834;23;20513;-74
2023/02/19 06:26:20;;;;;;;19.15;4.97;;;11.40;99.90;;;;;;6153278;23;20005;-74
2023/02/19 06:28:47;;;;;;;22.50;5.60;;;11.40;99.90;;;;;;6128303;23;20005;-74
2023/02/19 06:31:13;;;;;;;17.48;5.20;;;11.30;99.90;;;;;;6154832;23;20013;-75
2023/02/19 06:33:40;;;;;;;19.70;5.05;;;11.30;99.90;;;;;;6153116;23;20195;-75
2023/02/19 06:36:10;;;;;;;20.30;4.93;;;11.30;99.90;;;;;;6154613;23;20006;-75
2023/02/19 06:38:36;;;;;;;18.52;5.03;;;11.30;99.90;;;;;;6152617;23;19998;-75
2023/02/19 06:41:06;;;;;;;25.35;5.60;;;11.30;99.90;;;;;;6154158;23;20005;-77
2023/02/19 06:43:32;;;;;;;16.05;4.32;;;11.30;99.90;;;;;;6152674;23;19997;-76
2023/02/19 06:46:01;;;;;;;21.40;4.93;;;11.30;99.90;;;;;;6152901;23;20020;-75
2023/02/19 06:48:28;;;;;;;21.77;5.05;;;11.20;99.90;;;;;;6153423;23;20017;-75
2023/02/19 06:50:55;;;;;;;21.05;4.22;;;11.20;99.90;;;;;;6154918;23;20386;-76
2023/02/19 06:53:21;;;;;;;21.60;4.47;;;11.20;99.90;;;;;;6153048;23;20080;-76
2023/02/19 06:56:01;;;;;;;19.83;4.22;;;11.20;99.90;;;;;;6153970;23;19998;-75
2023/02/19 06:58:27;;;;;;;17.25;4.47;;;11.20;99.90;;;;;;6154738;23;20072;-76
2023/02/19 07:00:53;;;;;;;17.73;4.80;;;11.20;99.90;;;;;;6151401;23;20076;-76
2023/02/19 07:03:19;;;;;;;19.67;4.68;;;11.20;99.90;;;;;;6152573;23;20425;-74
2023/02/19 07:05:45;;;;;;;21.10;4.70;;;11.30;99.90;;;;;;6152874;23;20033;-73
2023/02/19 07:08:10;;;;;;;17.52;4.85;;;11.30;99.90;;;;;;6154382;23;20005;-75
2023/02/19 07:10:36;;;;;;;18.52;4.55;;;11.30;99.90;;;;;;6154324;23;20304;-74
2023/02/19 07:13:01;;;;;;;20.65;5.07;;;11.30;99.90;;;;;;6154812;23;20009;-75
2023/02/19 07:15:27;;;;;;;18.63;5.20;;;11.20;99.90;;;;;;6152301;23;20017;-74
2023/02/19 07:17:53;;;;;;;18.80;4.70;;;11.20;99.90;;;;;;6154472;23;20045;-74
2023/02/19 07:20:18;;;;;;;16.17;4.55;;;11.30;99.90;;;;;;6153673;23;20001;-74
2023/02/19 07:22:44;;;;;;;17.55;4.80;;;11.40;99.90;;;;;;6152974;23;20300;-75
2023/02/19 07:25:09;;;;;;;20.58;5.00;;;11.40;99.90;;;;;;6154673;23;20013;-74
2023/02/19 07:27:35;;;;;;;15.30;4.28;;;11.40;99.90;;;;;;6152551;23;20028;-75
2023/02/19 07:30:01;;;;;;;17.48;4.45;;;11.40;99.90;;;;;;6153612;23;20013;-74
2023/02/19 07:32:26;;;;;;;17.52;4.82;;;11.40;99.90;;;;;;6151764;23;20009;-74
2023/02/19 07:34:52;;;;;;;19.48;5.20;;;11.40;99.90;;;;;;6154121;23;20212;-75
2023/02/19 07:37:18;;;;;;;17.50;5.05;;;11.40;99.90;;;;;;6152775;23;20036;-75
2023/02/19 07:39:44;;;;;;;20.00;5.00;;;11.40;99.90;;;;;;6128065;23;20339;-74
2023/02/19 07:42:09;;;;;;;19.17;5.22;;;11.40;99.90;;;;;;6153873;23;20037;-74
2023/02/19 07:44:35;;;;;;;14.15;5.13;;;11.40;99.90;;;;;;6154627;23;20508;-74
2023/02/19 07:47:00;;;;;;;22.95;5.03;;;11.30;99.90;;;;;;6154304;23;20010;-74
2023/02/19 07:49:27;;;;;;;21.02;5.00;;;11.40;99.90;;;;;;6152133;23;20422;-74
2023/02/19 07:51:53;;;;;;;17.27;4.43;;;11.30;99.90;;;;;;6154043;23;20001;-74
2023/02/19 07:54:18;;;;;;;18.23;5.47;;;11.40;99.90;;;;;;6153922;23;20068;-73
2023/02/19 07:56:44;;;;;;;14.98;4.60;;;11.40;99.90;;;;;;6154380;23;20069;-73
2023/02/19 07:59:10;;;;;;;13.52;4.82;;;11.30;99.90;;;;;;6154114;23;20002;-74
2023/02/19 08:04:20;;;;;;;13.80;5.00;;;11.40;99.90;;;;;;6152872;23;20473;-74
2023/02/19 08:06:45;;;;;;;18.10;5.25;;;11.40;99.90;;;;;;6152010;23;20001;-75
2023/02/19 08:09:12;;;;;;;18.65;4.97;;;11.50;99.90;;;;;;6153163;23;20013;-74
2023/02/19 08:14:26;;;;;;;16.30;4.68;;;11.50;99.90;;;;;;6154100;23;20024;-75
2023/02/19 08:16:52;;;;;;;10.05;4.30;;;11.60;99.90;;;;;;6127416;23;20409;-75
2023/02/19 08:19:18;;;;;;;13.18;4.90;;;11.50;99.90;;;;;;6152565;23;20458;-75
2023/02/19 08:21:43;;;;;;;20.17;5.45;;;11.50;99.90;;;;;;6152843;23;20032;-74
2023/02/19 08:24:09;;;;;;;17.23;4.80;;;11.40;99.90;;;;;;6152708;23;20009;-75
2023/02/19 08:26:36;;;;;;;16.17;5.20;;;11.50;99.90;;;;;;6153913;23;20033;-75
2023/02/19 08:29:03;;;;;;;15.00;4.28;;;11.40;99.90;;;;;;6150858;23;20052;-74
2023/02/19 08:31:28;;;;;;;16.58;5.28;;;11.40;99.90;;;;;;6153134;23;20001;-74
2023/02/19 08:33:54;;;;;;;18.13;5.03;;;11.50;99.90;;;;;;6153558;23;20081;-75
2023/02/19 08:36:19;;;;;;;18.75;5.43;;;11.50;99.90;;;;;;6153454;23;20052;-74
2023/02/19 08:38:45;;;;;;;12.77;5.60;;;11.50;99.90;;;;;;6156316;23;20371;-74
2023/02/19 08:41:12;;;;;;;13.43;5.38;;;11.40;99.90;;;;;;6154769;23;20060;-75
2023/02/19 08:43:38;;;;;;;16.45;5.32;;;11.40;99.90;;;;;;6156270;23;20080;-75
2023/02/19 08:46:05;;;;;;;16.63;4.85;;;11.50;99.90;;;;;;6153452;23;20009;-75
2023/02/19 08:48:32;;;;;;;18.92;6.20;;;11.60;99.90;;;;;;6154735;23;20461;-74
2023/02/19 08:51:02;;;;;;;18.77;6.07;;;11.50;99.90;;;;;;6155733;23;20016;-73
2023/02/19 08:53:28;;;;;;;13.57;4.95;;;11.60;99.90;;;;;;6155181;23;20080;-74
2023/02/19 08:55:54;;;;;;;10.93;4.90;;;11.40;99.90;;;;;;6155352;23;20127;-73
2023/02/19 08:58:20;;;;;;;12.23;4.78;;;11.50;99.90;;;;;;6155840;23;20021;-74
2023/02/19 09:00:45;;;;;;;31.33;6.57;;;11.60;99.90;;;;;;6154699;23;20369;-74
2023/02/19 09:03:11;;;;;;;12.95;6.25;;;11.70;99.90;;;;;;6156045;23;20088;-74
2023/02/19 09:05:38;;;;;;;14.52;5.22;;;11.70;99.90;;;;;;6154838;23;20363;-74
2023/02/19 09:08:03;;;;;;;14.63;4.90;;;11.70;99.90;;;;;;6154671;23;20005;-74
2023/02/19 09:10:29;;;;;;;15.98;5.22;;;11.60;99.90;;;;;;6155291;23;20017;-74
2023/02/19 09:12:55;;;;;;;17.27;5.00;;;11.70;99.90;;;;;;6155594;23;20004;-74
2023/02/19 09:15:20;;;;;;;14.50;5.03;;;11.70;99.90;;;;;;6155402;23;20505;-75
2023/02/19 09:17:51;;;;;;;15.35;6.00;;;11.70;99.90;;;;;;6153682;23;20012;-74
2023/02/19 09:20:17;;;;;;;11.23;4.65;;;11.60;99.90;;;;;;6155226;23;20048;-74
2023/02/19 09:22:42;;;;;;;12.05;5.18;;;11.80;99.90;;;;;;6126015;23;20431;-74
2023/02/19 09:25:08;;;;;;;12.93;6.10;;;11.80;99.90;;;;;;6155523;23;20116;-74
2023/02/19 09:27:34;;;;;;;9.82;5.18;;;11.80;99.90;;;;;;6135898;23;20016;-74
2023/02/19 09:29:59;;;;;;;9.27;5.07;;;11.90;99.90;;;;;;6138270;23;20120;-74
2023/02/19 09:32:25;;;;;;;19.60;7.50;;;11.90;99.90;;;;;;6150423;23;20012;-74
2023/02/19 09:34:51;;;;;;;11.80;5.68;;;11.90;99.90;;;;;;6126285;23;20122;-74
2023/02/19 09:37:16;;;;;;;15.25;5.47;;;11.90;99.90;;;;;;6150667;23;20008;-74
2023/02/19 09:39:42;;;;;;;12.48;5.18;;;11.90;99.90;;;;;;6151354;23;20009;-74
2023/02/19 09:42:17;;;;;;;17.63;5.15;;;12.00;99.90;;;;;;6151520;23;20482;-74
2023/02/19 09:44:48;;;;;;;9.63;4.45;;;12.10;99.90;;;;;;6152718;23;20434;-74
2023/02/19 09:47:20;;;;;;;12.40;5.10;;;12.10;99.90;;;;;;6124861;23;20013;-75
2023/02/19 09:49:50;;;;;;;8.48;4.47;;;12.10;99.90;;;;;;6150913;23;20017;-71
2023/02/19 09:52:34;;;;;;;8.65;4.43;;;12.10;99.90;;;;;;6152105;23;20001;-73
2023/02/19 09:55:22;;;;;;;10.57;4.50;;;12.10;99.90;;;;;;6151618;23;20078;-74
2023/02/19 09:57:50;;;;;;;10.63;4.63;;;12.30;99.90;;;;;;6152051;23;19998;-73
2023/02/19 10:00:21;;;;;;;12.80;4.78;;;12.40;99.90;;;;;;6150313;23;19998;-75
2023/02/19 10:02:50;;;;;;;12.50;4.97;;;12.30;99.90;;;;;;6150470;23;20327;-74
2023/02/19 10:05:16;;;;;;;13.45;5.20;;;12.30;99.90;;;;;;6151933;23;19997;-74
2023/02/19 10:07:52;;;;;;;8.35;4.20;;;12.40;99.90;;;;;;6125427;23;20009;-75
2023/02/19 10:10:40;;;;;;;9.23;5.07;;;12.30;99.90;;;;;;6150043;23;20013;-75
2023/02/19 10:13:21;;;;;;;16.63;5.65;;;12.40;99.90;;;;;;6151033;23;20008;-73
2023/02/19 10:15:56;;;;;;;14.02;5.47;;;12.40;99.90;;;;;;6151903;23;20018;-74
2023/02/19 10:18:27;;;;;;;13.52;5.50;;;12.50;99.90;;;;;;6151381;23;20019;-74
2023/02/19 10:20:52;;;;;;;11.07;6.03;;;12.50;99.90;;;;;;6150933;23;20021;-74
2023/02/19 10:23:19;;;;;;;11.75;5.60;;;12.50;99.90;;;;;;6150675;23;20008;-74
2023/02/19 10:25:56;;;;;;;17.75;6.90;;;12.60;99.90;;;;;;6151493;23;20037;-74
2023/02/19 10:28:28;;;;;;;19.65;5.10;;;12.60;99.90;;;;;;6150264;23;20001;-74
2023/02/19 10:30:57;;;;;;;12.60;5.93;;;12.70;99.90;;;;;;6151035;23;20017;-74
2023/02/19 10:33:23;;;;;;;13.98;5.25;;;12.60;99.90;;;;;;6124930;23;20383;-74
2023/02/19 10:36:38;;;;;;;8.93;4.60;;;12.60;99.90;;;;;;6151804;23;20009;-74
2023/02/19 10:39:29;;;;;;;11.38;4.63;;;12.40;99.90;;;;;;6141957;23;20017;-77
2023/02/19 10:41:55;;;;;;;9.93;4.53;;;12.50;99.90;;;;;;6123450;23;20041;-76
2023/02/19 10:44:27;;;;;;;8.02;4.93;;;12.40;99.90;;;;;;6150815;23;20002;-75
2023/02/19 10:46:56;;;;;;;11.45;5.60;;;12.30;99.90;;;;;;6150710;23;20160;-76
2023/02/19 10:49:39;;;;;;;10.48;4.80;;;12.30;99.90;;;;;;6149452;23;20076;-74
2023/02/19 10:52:23;;;;;;;9.13;5.00;;;12.30;99.90;;;;;;6124255;23;20077;-74
2023/02/19 10:54:51;;;;;;;11.13;5.45;;;12.30;99.90;;;;;;6150351;23;20028;-73
2023/02/19 10:57:17;;;;;;;8.38;5.15;;;12.30;99.90;;;;;;6150737;23;20013;-73
2023/02/19 10:59:56;;;;;;;13.82;5.75;;;12.30;99.90;;;;;;6123517;23;20014;-73
2023/02/19 11:02:22;;;;;;;10.82;5.47;;;12.30;99.90;;;;;;6149866;23;20348;-73
2023/02/19 11:05:03;;;;;;;11.80;5.75;;;12.30;99.90;;;;;;6123885;23;20389;-73
2023/02/19 11:07:29;;;;;;;10.50;5.15;;;12.30;99.90;;;;;;6150432;23;20012;-73
2023/02/19 11:09:57;;;;;;;10.70;5.40;;;12.30;99.90;;;;;;6123913;23;20014;-73
2023/02/19 11:12:25;;;;;;;9.80;5.45;;;12.30;99.90;;;;;;6151439;23;20414;-73
2023/02/19 11:14:51;;;;;;;9.13;5.28;;;12.30;99.90;;;;;;6150675;23;20017;-73
2023/02/19 11:17:29;;;;;;;15.15;6.22;;;12.30;99.90;;;;;;6151442;23;20009;-73
2023/02/19 11:19:59;;;;;;;11.07;5.63;;;12.20;99.90;;;;;;6150404;23;20582;-73
2023/02/19 11:22:40;;;;;;;10.75;5.95;;;12.30;99.90;;;;;;6124594;23;20037;-73
2023/02/19 11:25:26;;;;;;;12.20;6.18;;;12.40;99.90;;;;;;6150768;23;20032;-73
2023/02/19 11:27:57;;;;;;;12.02;6.55;;;12.30;99.90;;;;;;6122839;23;20011;-73
2023/02/19 11:30:41;;;;;;;9.77;6.03;;;12.40;99.90;;;;;;6149711;23;20024;-74
2023/02/19 11:33:15;;;;;;;14.90;6.65;;;12.40;99.90;;;;;;6150180;23;20330;-73
2023/02/19 11:35:46;;;;;;;13.93;5.95;;;12.50;99.90;;;;;;6150893;23;20009;-73
2023/02/19 11:38:14;;;;;;;7.20;4.65;;;12.30;99.90;;;;;;6122974;23;19998;-73
2023/02/19 11:40:42;;;;;;;13.90;5.18;;;12.40;99.90;;;;;;6147368;23;20001;-73
2023/02/19 11:43:28;;;;;;;13.38;5.82;;;12.30;99.90;;;;;;6148194;23;19998;-74
2023/02/19 11:46:03;;;;;;;15.23;5.53;;;12.40;99.90;;;;;;6132961;23;20018;-73
2023/02/19 11:48:39;;;;;;;11.27;5.50;;;12.30;99.90;;;;;;6149833;23;20010;-73
2023/02/19 11:51:31;;;;;;;10.93;5.55;;;12.30;99.90;;;;;;6149047;23;20010;-72
2023/02/19 11:54:20;;;;;;;12.95;5.20;;;12.30;99.90;;;;;;6136896;23;20419;-74
2023/02/19 11:56:56;;;;;;;8.10;5.10;;;12.40;99.90;;;;;;6150157;23;20088;-72
2023/02/19 11:59:38;;;;;;;10.32;5.13;;;12.40;99.90;;;;;;6149040;23;20008;-72
2023/02/19 12:02:26;;;;;;;15.07;6.03;;;12.30;99.90;;;;;;6150399;23;20012;-72
2023/02/19 12:05:16;;;;;;;10.32;5.72;;;12.30;99.90;;;;;;6145565;23;20128;-74
2023/02/19 12:07:57;;;;;;;16.40;5.78;;;12.30;99.90;;;;;;6123265;23;20438;-73
2023/02/19 12:11:03;;;;;;;12.38;5.63;;;12.30;99.90;;;;;;6149801;23;20498;-73
2023/02/19 12:13:46;;;;;;;13.95;5.63;;;12.30;99.90;;;;;;6125277;23;19997;-74
2023/02/19 12:16:35;;;;;;;11.32;5.10;;;12.30;99.90;;;;;;6152522;23;20013;-75
2023/02/19 12:19:55;;;;;;;13.38;5.13;;;12.30;99.90;;;;;;6151920;23;20005;-73
2023/02/19 12:22:49;;;;;;;12.18;5.28;;;12.30;99.90;;;;;;6061430;23;20011;-71
2023/02/19 12:25:41;;;;;;;12.25;5.85;;;12.40;99.90;;;;;;6124777;23;20037;-72
2023/02/19 12:28:44;;;;;;;13.13;5.90;;;12.50;99.90;;;;;;6147782;23;20002;-72
2023/02/19 12:31:34;;;;;;;10.82;6.38;;;12.60;99.90;;;;;;6152244;23;20005;-73
2023/02/19 12:34:26;;;;;;;7.10;5.68;;;12.50;99.90;;;;;;6150951;23;20010;-72
2023/02/19 12:37:05;;;;;;;11.98;5.95;;;12.70;99.90;;;;;;6151232;23;20021;-72
2023/02/19 12:39:42;;;;;;;10.68;6.55;;;12.60;99.90;;;;;;6151706;23;20002;-72
2023/02/19 12:42:44;;;;;;;17.60;6.85;;;12.70;99.90;;;;;;6150603;23;19998;-73
2023/02/19 12:45:28;;;;;;;9.98;5.82;;;12.70;99.90;;;;;;6124534;23;20013;-72
2023/02/19 12:48:24;;;;;;;11.63;6.35;;;12.70;99.90;;;;;;6151530;23;20013;-73
2023/02/19 12:50:55;;;;;;;12.57;6.45;;;12.70;99.90;;;;;;6151790;23;20009;-73
2023/02/19 12:53:21;;;;;;;13.43;6.65;;;12.70;99.90;;;;;;6151600;23;19997;-73
2023/02/19 12:55:47;;;;;;;10.15;6.05;;;12.70;99.90;;;;;;6151369;23;20005;-73
2023/02/19 12:58:37;;;;;;;7.10;5.28;;;12.60;99.90;;;;;;6151729;23;20001;-73
2023/02/19 13:01:04;;;;;;;16.42;5.35;;;12.60;99.90;;;;;;6151404;23;20457;-73
2023/02/19 13:03:33;;;;;;;10.43;4.72;;;12.50;99.90;;;;;;6152124;23;20025;-73
2023/02/19 13:06:10;;;;;;;11.30;4.72;;;12.40;99.90;;;;;;6150901;23;20012;-72
2023/02/19 13:08:48;;;;;;;8.32;4.05;;;12.60;99.90;;;;;;6150894;23;20015;-72
2023/02/19 13:11:23;;;;;;;8.07;3.78;;;12.50;99.90;;;;;;6125378;23;20013;-74
2023/02/19 13:13:58;;;;;;;11.35;4.57;;;12.50;99.90;;;;;;6151630;23;20073;-72
2023/02/19 13:16:31;;;;;;;8.32;4.55;;;12.50;99.90;;;;;;6125525;23;20021;-73
2023/02/19 13:19:00;;;;;;;7.43;4.82;;;12.50;99.90;;;;;;6151362;23;20001;-74
2023/02/19 13:24:37;;;;;;;9.38;4.43;;;12.40;99.90;;;;;;6149897;23;20532;-73
2023/02/19 13:27:21;;;;;;;10.38;5.47;;;12.40;99.90;;;;;;6151437;23;20453;-72